createdAt,value
2022-08-09T00:02:43.065Z,19.13
2022-08-09T00:06:51.350Z,19.24
2022-08-09T00:10:54.351Z,19.29
2022-08-09T00:15:06.365Z,19.36
2022-08-09T00:19:10.409Z,19.23
2022-08-09T00:23:57.426Z,19.24
2022-08-09T00:27:36.293Z,19.29
2022-08-09T00:31:57.019Z,19.26
2022-08-09T00:36:00.936Z,19.36
2022-08-09T00:40:12.956Z,19.39
2022-08-09T00:44:26.247Z,19.42
2022-08-09T00:48:29.017Z,19.39
2022-08-09T00:52:31.203Z,19.39
2022-08-09T00:56:35.725Z,19.36
2022-08-09T01:00:40.567Z,19.27
2022-08-09T01:05:14.375Z,19.39
2022-08-09T01:09:35.935Z,19.46
2022-08-09T01:14:07.894Z,19.04
2022-08-09T01:18:18.331Z,19.33
2022-08-09T01:23:12.393Z,19.30
2022-08-09T01:27:29.594Z,19.41
2022-08-09T01:32:28.096Z,19.02
2022-08-09T01:36:04.350Z,19.18
2022-08-09T01:40:09.234Z,19.38
2022-08-09T01:44:13.645Z,19.51
2022-08-09T01:48:19.534Z,19.60
2022-08-09T01:52:26.980Z,19.54
2022-08-09T01:56:33.205Z,19.47
2022-08-09T02:00:36.341Z,19.30
2022-08-09T02:04:45.393Z,19.28
2022-08-09T02:08:59.037Z,19.21
2022-08-09T02:13:05.210Z,19.07
2022-08-09T02:17:29.434Z,19.04
2022-08-09T02:21:38.280Z,18.97
2022-08-09T02:25:49.622Z,18.72
2022-08-09T02:29:55.843Z,19.02
2022-08-09T02:34:06.898Z,19.12
2022-08-09T02:38:22.076Z,19.11
2022-08-09T02:42:42.923Z,19.10
2022-08-09T02:46:46.674Z,19.02
2022-08-09T02:50:56.527Z,18.68
2022-08-09T02:54:59.704Z,18.84
2022-08-09T02:59:06.999Z,18.81
2022-08-09T03:03:10.954Z,18.87
2022-08-09T03:07:14.639Z,19.08
2022-08-09T03:12:04.708Z,19.12
2022-08-09T03:16:06.152Z,18.98
2022-08-09T03:20:11.261Z,18.74
2022-08-09T03:24:13.236Z,19.10
2022-08-09T03:28:34.942Z,19.13
2022-08-09T03:32:37.853Z,19.13
2022-08-09T03:36:40.185Z,19.21
2022-08-09T03:40:49.507Z,19.14
2022-08-09T03:44:53.008Z,19.21
2022-08-09T03:49:04.052Z,19.16
2022-08-09T03:53:10.862Z,19.11
2022-08-09T03:57:20.026Z,19.12
2022-08-09T04:01:24.823Z,19.01
2022-08-09T04:05:27.736Z,19.21
2022-08-09T04:09:48.330Z,19.06
2022-08-09T04:14:53.468Z,18.71
2022-08-09T04:18:17.848Z,18.47
2022-08-09T04:22:19.780Z,18.81
2022-08-09T04:26:23.402Z,18.88
2022-08-09T04:30:26.090Z,19.11
2022-08-09T04:34:33.375Z,18.88
2022-08-09T04:38:34.798Z,19.08
2022-08-09T04:42:38.609Z,19.16
2022-08-09T04:46:59.089Z,19.26
2022-08-09T04:51:01.968Z,19.03
2022-08-09T04:55:04.713Z,19.05
2022-08-09T04:59:15.585Z,19.41
2022-08-09T05:03:40.682Z,18.97
2022-08-09T05:07:38.638Z,19.14
2022-08-09T05:11:41.862Z,19.36
2022-08-09T05:15:52.092Z,19.49
2022-08-09T05:19:58.281Z,19.37
2022-08-09T05:24:02.007Z,19.65
2022-08-09T05:28:04.396Z,19.55
2022-08-09T05:32:06.094Z,19.73
2022-08-09T05:36:08.105Z,19.78
2022-08-09T05:40:10.232Z,19.79
2022-08-09T05:44:11.768Z,19.80
2022-08-09T05:48:15.432Z,19.65
2022-08-09T05:52:18.483Z,19.87
2022-08-09T05:56:25.843Z,20.08
2022-08-09T06:00:33.154Z,20.31
2022-08-09T06:04:35.304Z,20.16
2022-08-09T06:08:36.834Z,19.77
2022-08-09T06:12:38.773Z,19.95
2022-08-09T06:16:40.213Z,19.93
2022-08-09T06:20:43.325Z,20.08
2022-08-09T06:24:55.879Z,20.00
2022-08-09T06:28:59.954Z,19.98
2022-08-09T06:33:30.452Z,20.14
2022-08-09T06:37:53.073Z,20.38
2022-08-09T06:41:55.912Z,20.66
2022-08-09T06:46:10.897Z,21.08
2022-08-09T06:50:16.551Z,20.84
2022-08-09T06:54:21.373Z,20.50
2022-08-09T06:58:40.817Z,20.52
2022-08-09T07:02:44.793Z,20.81
2022-08-09T07:06:53.205Z,20.93
2022-08-09T07:10:55.029Z,21.16
2022-08-09T07:14:56.488Z,21.39
2022-08-09T07:18:58.164Z,21.57
2022-08-09T07:22:59.679Z,21.90
2022-08-09T07:27:02.254Z,21.91
2022-08-09T07:31:04.912Z,22.79
2022-08-09T07:35:11.442Z,22.88
2022-08-09T07:39:20.108Z,22.51
2022-08-09T07:43:50.073Z,22.55
2022-08-09T07:48:01.591Z,22.42
2022-08-09T07:52:17.089Z,22.37
2022-08-09T07:56:27.045Z,22.63
2022-08-09T08:00:35.404Z,22.44
2022-08-09T08:04:38.725Z,22.48
2022-08-09T08:09:00.804Z,22.51
2022-08-09T08:13:03.770Z,22.71
2022-08-09T08:17:09.109Z,22.77
2022-08-09T08:21:26.642Z,23.02
2022-08-09T08:25:44.003Z,23.00
2022-08-09T08:29:49.942Z,22.57
2022-08-09T08:33:53.811Z,22.66
2022-08-09T08:38:01.947Z,22.46
2022-08-09T08:42:10.948Z,23.24
2022-08-09T08:46:33.572Z,23.42
2022-08-09T08:50:34.685Z,23.67
2022-08-09T08:54:36.336Z,24.30
2022-08-09T08:58:38.345Z,24.53
2022-08-09T09:02:50.111Z,24.56
2022-08-09T09:06:58.090Z,24.79
2022-08-09T09:11:04.584Z,24.90
2022-08-09T09:15:07.658Z,25.00
2022-08-09T09:23:49.775Z,25.20
2022-08-09T09:28:06.596Z,25.89
2022-08-09T09:32:15.878Z,25.92
2022-08-09T09:36:20.418Z,26.03
2022-08-09T09:40:41.443Z,26.08
2022-08-09T09:44:59.102Z,26.51
2022-08-09T09:49:04.697Z,26.75
2022-08-09T09:53:15.729Z,27.13
2022-08-09T09:58:02.604Z,27.51
2022-08-09T10:01:43.080Z,27.25
2022-08-09T10:06:03.637Z,26.77
2022-08-09T10:10:06.793Z,26.95
2022-08-09T10:14:31.726Z,25.85
2022-08-09T10:18:35.307Z,26.85
2022-08-09T10:22:39.198Z,27.41
2022-08-09T10:26:41.507Z,28.00
2022-08-09T10:35:07.480Z,27.44
2022-08-09T10:39:15.543Z,28.09
2022-08-09T10:43:19.715Z,27.95
2022-08-09T10:48:19.403Z,28.87
2022-08-09T10:52:07.743Z,28.90
2022-08-09T10:56:36.471Z,29.09
2022-08-09T11:00:56.997Z,29.14
2022-08-09T11:05:25.044Z,29.83
2022-08-09T11:09:37.504Z,30.09
2022-08-09T11:13:51.184Z,30.03
2022-08-09T11:18:03.640Z,30.38
2022-08-09T11:22:18.569Z,29.70
2022-08-09T11:26:39.883Z,29.89
2022-08-09T11:30:48.757Z,29.79
2022-08-09T11:34:52.166Z,29.91
2022-08-09T11:39:01.826Z,30.20
2022-08-09T11:43:03.379Z,30.99
2022-08-09T11:47:05.033Z,30.13
2022-08-09T11:52:53.753Z,30.27
2022-08-09T11:55:52.425Z,29.55
2022-08-09T11:59:55.616Z,29.40
2022-08-09T12:04:23.917Z,29.49
2022-08-09T12:08:34.289Z,28.77
2022-08-09T12:12:49.172Z,29.35
2022-08-09T12:16:56.422Z,30.58
2022-08-09T12:21:02.793Z,30.81
2022-08-09T12:25:17.940Z,31.35
2022-08-09T12:29:43.892Z,31.73
2022-08-09T12:33:59.028Z,31.41
2022-08-09T12:38:33.243Z,28.66
2022-08-09T12:42:45.990Z,29.32
2022-08-09T12:46:50.160Z,28.05
2022-08-09T12:50:52.113Z,27.82
2022-08-09T12:56:12.013Z,27.31
2022-08-09T12:59:22.553Z,27.47
2022-08-09T13:03:53.272Z,27.15
2022-08-09T13:08:16.204Z,26.72
2022-08-09T13:12:23.161Z,26.68
2022-08-09T13:16:40.041Z,27.16
2022-08-09T13:21:04.403Z,27.52
2022-08-09T13:25:08.106Z,28.92
2022-08-09T13:29:42.235Z,29.92
2022-08-09T13:33:53.532Z,30.21
2022-08-09T13:37:55.587Z,29.61
2022-08-09T13:42:05.010Z,28.71
2022-08-09T13:46:42.269Z,29.66
2022-08-09T13:50:31.156Z,30.91
2022-08-09T13:54:33.427Z,30.98
2022-08-09T13:58:35.671Z,30.37
2022-08-09T14:02:42.452Z,29.95
2022-08-09T14:07:03.685Z,29.88
2022-08-09T14:11:09.873Z,29.92
2022-08-09T14:16:06.752Z,28.92
2022-08-09T14:19:39.406Z,28.60
2022-08-09T14:23:53.836Z,27.92
2022-08-09T14:27:58.654Z,28.71
2022-08-09T14:32:11.376Z,30.42
2022-08-09T14:36:20.896Z,30.75
2022-08-09T14:40:38.765Z,30.79
2022-08-09T14:44:48.931Z,30.45
2022-08-09T14:49:02.919Z,30.03
2022-08-09T14:53:11.252Z,31.04
2022-08-09T14:57:13.533Z,29.30
2022-08-09T15:01:17.999Z,29.83
2022-08-09T15:05:22.145Z,29.74
2022-08-09T15:10:03.988Z,29.61
2022-08-09T15:13:56.261Z,29.18
2022-08-09T15:18:07.563Z,29.37
2022-08-09T15:22:13.702Z,28.87
2022-08-09T15:26:31.210Z,28.14
2022-08-09T15:30:56.257Z,28.14
2022-08-09T15:34:56.380Z,28.37
2022-08-09T15:38:59.806Z,29.67
2022-08-09T15:43:01.842Z,30.79
2022-08-09T15:47:03.867Z,30.94
2022-08-09T15:51:30.312Z,30.12
2022-08-09T15:55:28.950Z,29.99
2022-08-09T15:59:37.508Z,29.99
2022-08-09T16:03:41.435Z,30.47
2022-08-09T16:07:46.088Z,30.59
2022-08-09T16:11:57.297Z,30.85
2022-08-09T16:16:11.574Z,30.93
2022-08-09T16:20:19.221Z,29.95
2022-08-09T16:24:33.236Z,30.48
2022-08-09T16:28:35.611Z,30.75
2022-08-09T16:32:56.153Z,30.61
2022-08-09T16:36:59.731Z,29.93
2022-08-09T16:41:04.070Z,30.36
2022-08-09T16:45:07.776Z,31.01
2022-08-09T16:49:17.722Z,31.68
2022-08-09T16:53:34.345Z,30.06
2022-08-09T16:58:09.194Z,29.30
2022-08-09T17:01:57.973Z,29.39
2022-08-09T17:06:07.580Z,29.84
2022-08-09T17:10:21.967Z,28.74
2022-08-09T17:14:25.822Z,29.51
2022-08-09T17:18:30.188Z,29.60
2022-08-09T17:22:32.847Z,29.99
2022-08-09T17:26:38.410Z,29.58
2022-08-09T17:30:41.382Z,28.95
2022-08-09T17:35:01.365Z,28.77
2022-08-09T17:39:10.744Z,28.43
2022-08-09T17:43:33.929Z,28.93
2022-08-09T17:47:49.442Z,29.38
2022-08-09T17:51:55.250Z,28.87
2022-08-09T17:56:02.068Z,28.80
2022-08-09T18:00:08.222Z,27.44
2022-08-09T18:04:11.305Z,26.04
2022-08-09T18:08:14.166Z,25.70
2022-08-09T18:12:20.024Z,26.05
2022-08-09T18:16:30.577Z,25.71
2022-08-09T18:20:59.139Z,25.45
2022-08-09T18:24:54.149Z,25.10
2022-08-09T18:30:40.545Z,25.10
2022-08-09T18:33:23.033Z,24.75
2022-08-09T18:37:49.181Z,24.43
2022-08-09T18:41:52.536Z,24.03
2022-08-09T18:46:49.337Z,24.17
2022-08-09T18:50:16.760Z,23.76
2022-08-09T18:54:29.974Z,23.89
2022-08-09T18:58:33.025Z,23.71
2022-08-09T19:02:34.991Z,23.67
2022-08-09T19:06:38.554Z,23.58
2022-08-09T19:10:40.437Z,23.52
2022-08-09T19:14:43.538Z,23.32
2022-08-09T19:18:45.672Z,23.26
2022-08-09T19:22:50.373Z,23.38
2022-08-09T19:26:56.302Z,22.96
2022-08-09T19:30:57.729Z,23.14
2022-08-09T19:34:59.162Z,23.00
2022-08-09T19:39:03.570Z,22.99
2022-08-09T19:43:10.284Z,22.87
2022-08-09T19:47:22.844Z,22.90
2022-08-09T19:51:25.552Z,22.50
2022-08-09T19:56:02.147Z,22.36
2022-08-09T19:59:59.269Z,21.93
2022-08-09T20:04:23.563Z,22.13
2022-08-09T20:08:35.414Z,22.21
2022-08-09T20:12:41.393Z,21.89
2022-08-09T20:16:53.621Z,22.09
2022-08-09T20:20:57.010Z,22.32
2022-08-09T20:24:58.583Z,21.78
2022-08-09T20:29:18.580Z,21.77
2022-08-09T20:33:20.620Z,21.81
2022-08-09T20:37:22.842Z,22.02
2022-08-09T20:41:35.237Z,21.35
2022-08-09T20:46:02.031Z,21.36
2022-08-09T20:50:02.354Z,21.28
2022-08-09T20:54:04.233Z,21.42
2022-08-09T20:58:08.106Z,21.36
2022-08-09T21:02:21.968Z,21.34
2022-08-09T21:06:25.753Z,21.17
2022-08-09T21:10:30.937Z,21.26
2022-08-09T21:14:40.682Z,21.36
2022-08-09T21:19:01.810Z,21.05
2022-08-09T21:23:08.876Z,21.17
2022-08-09T21:27:52.157Z,21.01
2022-08-09T21:31:48.090Z,21.04
2022-08-09T21:35:52.692Z,20.91
2022-08-09T21:39:54.418Z,20.89
2022-08-09T21:43:58.202Z,20.81
2022-08-09T21:48:00.394Z,20.83
2022-08-09T21:52:01.852Z,20.77
2022-08-09T21:56:03.682Z,20.75
2022-08-09T22:00:10.511Z,20.69
2022-08-09T22:04:12.012Z,20.39
2022-08-09T22:08:18.252Z,19.83
2022-08-09T22:12:30.372Z,19.93
2022-08-09T22:16:37.222Z,20.25
2022-08-09T22:20:40.164Z,20.21
2022-08-09T22:26:04.391Z,20.14
2022-08-09T22:29:07.270Z,19.74
2022-08-09T22:33:09.608Z,19.93
2022-08-09T22:37:12.435Z,19.97
2022-08-09T22:41:15.409Z,20.07
2022-08-09T22:48:17.750Z,19.63
2022-08-09T22:49:40.357Z,19.61
2022-08-09T22:53:58.679Z,19.70
2022-08-09T22:58:04.908Z,19.57
2022-08-09T23:02:06.679Z,19.57
2022-08-09T23:06:08.163Z,19.39
2022-08-09T23:10:15.900Z,19.53
2022-08-09T23:14:17.721Z,19.37
2022-08-09T23:18:40.139Z,19.36
2022-08-09T23:22:41.617Z,19.37
2022-08-09T23:26:43.052Z,19.28
2022-08-09T23:30:51.361Z,19.30
2022-08-09T23:34:53.618Z,19.14
2022-08-09T23:38:55.195Z,19.18
2022-08-09T23:42:56.660Z,19.19
2022-08-09T23:46:58.121Z,19.00
2022-08-09T23:50:59.536Z,18.98
2022-08-09T23:55:01.012Z,18.70
2022-08-09T23:59:02.648Z,18.68
